Houston, TX

05:45 PM CDT em 31 de Outubro de 2014 (GMT -0500)
George Bush Intercontinental-Houston Airport | Change Station
CLOSE
Current Station
Aeroporto
Location: Houston Intercontinental,
Altitude: 108 ft
Estações Meteorológicas Próximas

Elev 108 ft 29.98 °N, 95.34 °W | Updated 52 minutes ago

Céu Limpo
Céu Limpo
76 °F
Aparente 76 °F
N
21
Vento Variável Vento de Norte
Gusts 25 mph

Hoje
Máxima -- | Mínima -- °F
--% Possibilidade de Precip.
Ontem
Máxima -- | Mínima -- °F
Precip. -- pol
7:34 AM 6:35 PM
Quarto crescente, 59% visible
Pressão 30.15 pol
Visibilidade 10.0 milhas
Nuvens Poucas 25000 ft
Ponto de Orvalho 41 °F
Humidade 29%
Chuva 0.00 pol
Altura de Neve Não disponível
UV 1 em vez de 12
Pólen 4.60 em vez de 12
Qualidade do Ar Não disponível
Flu Activity Não disponível
METAR KIAH 312153Z 01018G22KT 10SM FEW250 24/05 A3015 RMK AO2 SLP210 T02440050

More Conditions Fewer Conditions

Pressão 30.15 pol
Visibilidade 10.0 milhas
Nuvens Poucas 25000 ft
Ponto de Orvalho 41 °F
Humidade 29%
Chuva 0.00 pol
Altura de Neve Não disponível
UV 1 em vez de 12
Pólen 4.60 em vez de 12
Qualidade do Ar Não disponível
Flu Activity Não disponível
METAR KIAH 312153Z 01018G22KT 10SM FEW250 24/05 A3015 RMK AO2 SLP210 T02440050

More Conditions Fewer Conditions

10-Day Weather Forecast

Almanac

Astronomia

Oct. 31, 2014 Nascer Pôr
Hora atual
Crepúsculo civil
Crepúsculo náutico
Crepúsculo astronómico
Lua
Comprimento da luz visível
Duração do Dia
Tomorrow will be .
, % of the Moon is Illuminated

Extremos de Hoje

situação na parte mais alta situação na parte mais baixa

Community

WunderPhotos

Upload Photos

1,766,770 fotografias inseridas!

WunderBlogs® & News

Nearby

Qualidade do Ar

  Qualidade do Ar Índice da Q.A. Poluente
Not available.

Altura da Neve

Estação altura Altitude

Actividade Sísmisca

Cidade Distância Mag. Hora & Data
Mínima magnitude apresentada é 2.5.

Temperaturas das Águas Costeiras

Local Temperatura

Estações Meteorológicas Próximas